Wetterdaten: Freitag, 31.05.2013
Datum Zeit Temperatur Luftfeuchte Luftdruck Regen Wind Richtung Richtung Taupunkt Windchill Windben
31.05.2013 00:00 5,3 C 96 % 1008,0 hPa 0,7 l/m 6,4 km/h (2 Bft) S 180 4,7 C 3,8 C 10,9 km/h (2 Bft)
31.05.2013 00:05 5,3 C 96 % 1008,0 hPa 0,0 l/m 6,3 km/h (2 Bft) S 180 4,7 C 3,9 C 6,0 km/h (2 Bft)
31.05.2013 00:10 5,3 C 96 % 1008,0 hPa 0,0 l/m 6,8 km/h (2 Bft) S 180 4,7 C 3,3 C 11,9 km/h (2 Bft)
31.05.2013 00:15 5,3 C 96 % 1008,0 hPa 0,0 l/m 6,8 km/h (2 Bft) S 180 4,7 C 3,3 C 11,9 km/h (2 Bft)
31.05.2013 00:20 5,3 C 96 % 1007,9 hPa 0,0 l/m 8,9 km/h (2 Bft) S 180 4,7 C 0,9 C 16,4 km/h (3 Bft)
31.05.2013 00:25 5,2 C 96 % 1007,9 hPa 0,0 l/m 9,0 km/h (2 Bft) S 180 4,6 C 0,9 C 10,9 km/h (2 Bft)
31.05.2013 00:30 5,2 C 96 % 1007,9 hPa 0,0 l/m 7,7 km/h (2 Bft) SO 135 4,6 C 2,2 C 16,9 km/h (3 Bft)
31.05.2013 00:35 5,1 C 96 % 1007,9 hPa 0,0 l/m 7,4 km/h (2 Bft) S 180 4,5 C 2,5 C 9,8 km/h (2 Bft)
31.05.2013 00:40 5,1 C 96 % 1007,9 hPa 0,0 l/m 7,4 km/h (2 Bft) S 180 4,5 C 2,5 C 9,8 km/h (2 Bft)
31.05.2013 00:45 5,1 C 96 % 1007,9 hPa 0,7 l/m 7,2 km/h (2 Bft) S 180 4,5 C 2,7 C 6,9 km/h (2 Bft)
31.05.2013 00:50 5,0 C 96 % 1007,9 hPa 0,0 l/m 8,4 km/h (2 Bft) S 180 4,4 C 1,3 C 7,7 km/h (2 Bft)
31.05.2013 00:55 5,0 C 96 % 1007,9 hPa 0,0 l/m 8,4 km/h (2 Bft) S 180 4,4 C 1,3 C 7,7 km/h (2 Bft)
31.05.2013 01:00 5,0 C 96 % 1007,9 hPa 0,0 l/m 6,9 km/h (2 Bft) S-SO 157 4,4 C 2,8 C 4,5 km/h (1 Bft)
31.05.2013 01:05 4,9 C 96 % 1007,9 hPa 0,0 l/m 6,9 km/h (2 Bft) SO 135 4,3 C 2,8 C 8,4 km/h (2 Bft)
31.05.2013 01:10 4,8 C 96 % 1007,9 hPa 0,7 l/m 8,7 km/h (2 Bft) O-SO 112 4,2 C 0,6 C 8,9 km/h (2 Bft)
31.05.2013 01:15 4,8 C 96 % 1007,9 hPa 0,0 l/m 8,7 km/h (2 Bft) O-SO 112 4,2 C 0,6 C 8,9 km/h (2 Bft)
31.05.2013 01:20 4,7 C 96 % 1007,8 hPa 0,0 l/m 8,4 km/h (2 Bft) SO 135 4,1 C 0,8 C 20,4 km/h (4 Bft)
31.05.2013 01:25 4,7 C 96 % 1007,8 hPa 0,0 l/m 8,0 km/h (2 Bft) S 180 4,1 C 1,2 C 5,1 km/h (1 Bft)
31.05.2013 01:30 4,7 C 96 % 1007,8 hPa 0,0 l/m 7,7 km/h (2 Bft) SO 135 4,1 C 1,5 C 5,6 km/h (1 Bft)
31.05.2013 01:35 4,7 C 96 % 1007,8 hPa 0,0 l/m 7,7 km/h (2 Bft) SO 135 4,1 C 1,5 C 5,6 km/h (1 Bft)
31.05.2013 01:40 4,6 C 96 % 1007,8 hPa 0,0 l/m 8,4 km/h (2 Bft) SO 135 4,0 C 0,7 C 22,7 km/h (4 Bft)
31.05.2013 01:45 4,6 C 96 % 1007,5 hPa 0,0 l/m 7,6 km/h (2 Bft) S-SO 157 4,0 C 1,6 C 11,3 km/h (2 Bft)
31.05.2013 01:50 4,6 C 96 % 1007,5 hPa 0,0 l/m 6,9 km/h (2 Bft) SO 135 4,0 C 2,3 C 8,9 km/h (2 Bft)
31.05.2013 01:55 4,6 C 96 % 1007,5 hPa 0,0 l/m 7,7 km/h (2 Bft) S 180 4,0 C 1,5 C 5,6 km/h (1 Bft)
31.05.2013 02:00 4,6 C 96 % 1007,1 hPa 0,0 l/m 7,7 km/h (2 Bft) W-SW 247 4,0 C 1,5 C 6,6 km/h (2 Bft)
31.05.2013 02:05 4,6 C 96 % 1007,1 hPa 0,0 l/m 7,2 km/h (2 Bft) S-SO 157 4,0 C 2,1 C 16,9 km/h (3 Bft)
31.05.2013 02:10 4,7 C 96 % 1007,1 hPa 0,0 l/m 7,6 km/h (2 Bft) NO 45 4,1 C 1,7 C 4,3 km/h (1 Bft)
31.05.2013 02:15 4,7 C 96 % 1007,1 hPa 0,0 l/m 7,6 km/h (2 Bft) NO 45 4,1 C 1,7 C 4,3 km/h (1 Bft)
31.05.2013 02:20 4,7 C 96 % 1006,8 hPa 0,7 l/m 8,0 km/h (2 Bft) S-SO 157 4,1 C 1,3 C 14,8 km/h (3 Bft)
31.05.2013 02:25 4,7 C 96 % 1006,8 hPa 0,0 l/m 8,0 km/h (2 Bft) S-SO 157 4,1 C 1,3 C 14,8 km/h (3 Bft)
31.05.2013 02:30 4,8 C 96 % 1006,8 hPa 0,0 l/m 8,5 km/h (2 Bft) S-SO 157 4,2 C 0,7 C 7,6 km/h (2 Bft)
31.05.2013 02:35 4,8 C 96 % 1006,8 hPa 0,0 l/m 8,4 km/h (2 Bft) SO 135 4,2 C 0,8 C 15,0 km/h (3 Bft)
31.05.2013 02:40 4,8 C 96 % 1007,1 hPa 0,0 l/m 7,1 km/h (2 Bft) SO 135 4,2 C 2,4 C 8,9 km/h (2 Bft)
31.05.2013 02:45 4,8 C 96 % 1007,1 hPa 0,0 l/m 7,1 km/h (2 Bft) SO 135 4,2 C 2,4 C 8,9 km/h (2 Bft)
31.05.2013 02:50 4,8 C 96 % 1007,1 hPa 0,0 l/m 6,6 km/h (2 Bft) S 180 4,2 C 3,0 C 9,0 km/h (2 Bft)
31.05.2013 02:55 4,8 C 96 % 1007,1 hPa 0,0 l/m 6,6 km/h (2 Bft) S 180 4,2 C 3,0 C 9,0 km/h (2 Bft)
31.05.2013 03:00 4,8 C 96 % 1007,1 hPa 0,0 l/m 7,7 km/h (2 Bft) SO 135 4,2 C 1,6 C 16,1 km/h (3 Bft)
31.05.2013 03:05 4,8 C 96 % 1006,6 hPa 0,0 l/m 8,2 km/h (2 Bft) S-SO 157 4,2 C 1,1 C 8,9 km/h (2 Bft)
31.05.2013 03:10 4,8 C 96 % 1006,6 hPa 0,0 l/m 9,5 km/h (2 Bft) S 180 4,2 C -0,3 C 15,8 km/h (3 Bft)
31.05.2013 03:15 4,8 C 96 % 1006,6 hPa 0,0 l/m 10,0 km/h (2 Bft) SO 135 4,2 C -0,8 C 12,7 km/h (3 Bft)
31.05.2013 03:20 4,8 C 96 % 1006,2 hPa 0,0 l/m 9,7 km/h (2 Bft) SO 135 4,2 C -0,5 C 15,6 km/h (3 Bft)
31.05.2013 03:25 4,8 C 96 % 1006,2 hPa 0,0 l/m 9,7 km/h (2 Bft) SO 135 4,2 C -0,5 C 15,6 km/h (3 Bft)
31.05.2013 03:30 4,8 C 96 % 1006,2 hPa 0,0 l/m 8,9 km/h (2 Bft) SO 135 4,2 C 0,4 C 11,1 km/h (2 Bft)
31.05.2013 03:35 4,9 C 96 % 1006,2 hPa 0,0 l/m 9,0 km/h (2 Bft) S 180 4,3 C 0,2 C 15,1 km/h (3 Bft)
31.05.2013 03:40 4,9 C 96 % 1005,8 hPa 0,0 l/m 8,2 km/h (2 Bft) S-SO 157 4,3 C 1,1 C 13,2 km/h (3 Bft)
31.05.2013 03:45 4,9 C 96 % 1005,8 hPa 0,0 l/m 8,2 km/h (2 Bft) S-SO 157 4,3 C 1,1 C 13,2 km/h (3 Bft)
31.05.2013 03:50 4,8 C 96 % 1005,8 hPa 0,0 l/m 8,7 km/h (2 Bft) SO 135 4,2 C 0,6 C 8,5 km/h (2 Bft)
31.05.2013 03:55 4,8 C 96 % 1005,8 hPa 0,0 l/m 8,7 km/h (2 Bft) SO 135 4,2 C 0,6 C 8,5 km/h (2 Bft)
31.05.2013 04:00 4,8 C 96 % 1005,8 hPa 0,7 l/m 9,5 km/h (2 Bft) SO 135 4,2 C -0,4 C 23,2 km/h (4 Bft)
31.05.2013 04:05 4,8 C 96 % 1005,8 hPa 0,0 l/m 9,0 km/h (2 Bft) S 180 4,2 C 0,2 C 11,1 km/h (2 Bft)
31.05.2013 04:10 4,8 C 96 % 1005,8 hPa 0,0 l/m 9,5 km/h (2 Bft) O 90 4,2 C -0,3 C 10,9 km/h (2 Bft)
31.05.2013 04:15 4,8 C 96 % 1005,8 hPa 0,0 l/m 9,5 km/h (2 Bft) O 90 4,2 C -0,3 C 10,9 km/h (2 Bft)
31.05.2013 04:20 4,8 C 96 % 1005,8 hPa 0,0 l/m 9,3 km/h (2 Bft) S 180 4,2 C -0,0 C 9,7 km/h (2 Bft)
31.05.2013 04:25 4,9 C 96 % 1005,6 hPa 0,0 l/m 10,8 km/h (2 Bft) S 180 4,3 C -1,6 C 10,5 km/h (2 Bft)
31.05.2013 04:30 4,9 C 96 % 1005,6 hPa 0,0 l/m 10,8 km/h (2 Bft) S 180 4,3 C -1,6 C 23,7 km/h (4 Bft)
31.05.2013 04:35 4,8 C 96 % 1005,6 hPa 0,0 l/m 9,3 km/h (2 Bft) O-SO 112 4,2 C -0,0 C 10,1 km/h (2 Bft)
31.05.2013 04:40 4,9 C 96 % 1005,6 hPa 0,0 l/m 8,2 km/h (2 Bft) W 270 4,3 C 1,1 C 9,2 km/h (2 Bft)
31.05.2013 04:45 4,8 C 96 % 1005,4 hPa 0,7 l/m 8,5 km/h (2 Bft) S 180 4,2 C 0,7 C 8,0 km/h (2 Bft)
31.05.2013 04:50 4,9 C 96 % 1005,4 hPa 0,0 l/m 8,7 km/h (2 Bft) S-SO 157 4,3 C 0,6 C 18,3 km/h (3 Bft)
31.05.2013 04:55 4,9 C 96 % 1005,4 hPa 0,0 l/m 9,3 km/h (2 Bft) SO 135 4,3 C 0,1 C 10,5 km/h (2 Bft)
31.05.2013 05:00 4,9 C 96 % 1005,6 hPa 0,0 l/m 9,0 km/h (2 Bft) SO 135 4,3 C 0,4 C 15,3 km/h (3 Bft)
31.05.2013 05:05 4,9 C 96 % 1005,6 hPa 0,0 l/m 9,0 km/h (2 Bft) SO 135 4,3 C 0,4 C 15,3 km/h (3 Bft)
31.05.2013 05:10 4,9 C 96 % 1005,6 hPa 0,0 l/m 10,5 km/h (2 Bft) S-SW 202 4,3 C -1,2 C 23,7 km/h (4 Bft)
31.05.2013 05:15 4,9 C 96 % 1005,6 hPa 0,0 l/m 10,0 km/h (2 Bft) S-SO 157 4,3 C -0,5 C 19,2 km/h (3 Bft)
31.05.2013 05:20 5,0 C 96 % 1005,2 hPa 0,0 l/m 9,5 km/h (2 Bft) O-SO 112 4,4 C 0,0 C 11,1 km/h (2 Bft)
31.05.2013 05:25 5,0 C 96 % 1005,2 hPa 0,0 l/m 9,3 km/h (2 Bft) SO 135 4,4 C 0,2 C 11,7 km/h (2 Bft)
31.05.2013 05:30 5,0 C 96 % 1005,2 hPa 0,0 l/m 9,3 km/h (2 Bft) SO 135 4,4 C 0,2 C 11,7 km/h (2 Bft)
31.05.2013 05:35 5,0 C 96 % 1005,2 hPa 0,7 l/m 8,7 km/h (2 Bft) S 180 4,4 C 1,0 C 9,7 km/h (2 Bft)
31.05.2013 05:40 5,1 C 96 % 1005,2 hPa 0,0 l/m 8,7 km/h (2 Bft) S-SO 157 4,5 C 1,0 C 10,5 km/h (2 Bft)
31.05.2013 05:45 5,2 C 96 % 1005,2 hPa 0,0 l/m 8,9 km/h (2 Bft) SO 135 4,6 C 0,8 C 19,8 km/h (3 Bft)
31.05.2013 05:50 5,3 C 96 % 1005,2 hPa 0,0 l/m 11,1 km/h (2 Bft) S-SO 157 4,7 C -1,3 C 14,8 km/h (3 Bft)
31.05.2013 05:55 5,3 C 96 % 1005,2 hPa 0,0 l/m 11,6 km/h (2 Bft) W-SW 247 4,7 C -1,6 C 11,4 km/h (2 Bft)
31.05.2013 06:00 5,3 C 96 % 1005,7 hPa 0,0 l/m 10,3 km/h (2 Bft) S 180 4,7 C -0,5 C 25,6 km/h (4 Bft)
31.05.2013 06:05 5,3 C 96 % 1005,7 hPa 0,0 l/m 10,0 km/h (2 Bft) SO 135 4,7 C -0,1 C 10,6 km/h (2 Bft)
31.05.2013 06:10 5,3 C 96 % 1005,7 hPa 0,0 l/m 10,0 km/h (2 Bft) S-SO 157 4,7 C -0,0 C 10,9 km/h (2 Bft)
31.05.2013 06:15 5,4 C 96 % 1005,7 hPa 0,0 l/m 10,6 km/h (2 Bft) S-SO 157 4,8 C -0,6 C 8,7 km/h (2 Bft)
31.05.2013 06:20 5,5 C 96 % 1005,9 hPa 0,0 l/m 12,2 km/h (2 Bft) O-SO 112 4,9 C -1,9 C 11,4 km/h (2 Bft)
31.05.2013 06:25 5,5 C 96 % 1005,9 hPa 0,0 l/m 12,2 km/h (2 Bft) O-SO 112 4,9 C -1,9 C 11,4 km/h (2 Bft)
31.05.2013 06:30 5,5 C 96 % 1005,9 hPa 0,0 l/m 11,6 km/h (2 Bft) S 180 4,9 C -1,2 C 15,8 km/h (3 Bft)
31.05.2013 06:35 5,5 C 96 % 1005,9 hPa 0,7 l/m 11,6 km/h (2 Bft) S 180 4,9 C -1,2 C 11,4 km/h (2 Bft)
31.05.2013 06:40 5,5 C 96 % 1005,9 hPa 0,0 l/m 11,6 km/h (2 Bft) S 180 4,9 C -1,2 C 31,2 km/h (5 Bft)
31.05.2013 06:45 5,5 C 96 % 1005,7 hPa 0,0 l/m 10,9 km/h (2 Bft) S-SW 202 4,9 C -0,6 C 12,1 km/h (2 Bft)
31.05.2013 06:50 5,5 C 96 % 1005,7 hPa 0,0 l/m 10,5 km/h (2 Bft) S 180 4,9 C -0,3 C 7,1 km/h (2 Bft)
31.05.2013 06:55 5,5 C 96 % 1005,7 hPa 0,0 l/m 10,5 km/h (2 Bft) S 180 4,9 C -0,3 C 7,1 km/h (2 Bft)
31.05.2013 07:00 5,5 C 96 % 1005,6 hPa 0,0 l/m 10,1 km/h (2 Bft) S 180 4,9 C 0,0 C 10,1 km/h (2 Bft)
31.05.2013 07:05 5,5 C 96 % 1005,6 hPa 0,0 l/m 10,1 km/h (2 Bft) S 180 4,9 C 0,0 C 10,1 km/h (2 Bft)
31.05.2013 07:10 5,5 C 96 % 1005,6 hPa 0,7 l/m 13,7 km/h (3 Bft) S-SO 157 4,9 C -3,0 C 10,8 km/h (2 Bft)
31.05.2013 07:15 5,5 C 96 % 1005,6 hPa 0,0 l/m 14,3 km/h (3 Bft) S-SO 157 4,9 C -3,4 C 23,8 km/h (4 Bft)
31.05.2013 07:20 5,5 C 96 % 1005,6 hPa 0,0 l/m 14,5 km/h (3 Bft) S-SW 202 4,9 C -3,5 C 18,7 km/h (3 Bft)
31.05.2013 07:25 5,6 C 96 % 1005,6 hPa 0,0 l/m 14,0 km/h (3 Bft) S-SW 202 5,0 C -3,3 C 19,6 km/h (3 Bft)
31.05.2013 07:30 5,6 C 96 % 1005,6 hPa 0,0 l/m 14,0 km/h (3 Bft) S-SW 202 5,0 C -3,3 C 19,6 km/h (3 Bft)
31.05.2013 07:35 5,5 C 96 % 1005,6 hPa 0,7 l/m 11,6 km/h (2 Bft) S-SW 202 4,9 C -1,2 C 15,4 km/h (3 Bft)
31.05.2013 07:40 5,5 C 96 % 1005,6 hPa 0,0 l/m 11,6 km/h (2 Bft) S-SW 202 4,9 C -1,2 C 15,4 km/h (3 Bft)
31.05.2013 07:45 5,5 C 96 % 1005,1 hPa 0,0 l/m 11,3 km/h (2 Bft) S 180 4,9 C -1,0 C 12,2 km/h (2 Bft)
31.05.2013 07:50 5,6 C 96 % 1005,1 hPa 0,0 l/m 12,7 km/h (3 Bft) S-SO 157 5,0 C -2,0 C 15,1 km/h (3 Bft)
31.05.2013 07:55 5,6 C 96 % 1005,1 hPa 0,0 l/m 12,7 km/h (3 Bft) S-SO 157 5,0 C -2,0 C 15,1 km/h (3 Bft)
31.05.2013 08:00 5,8 C 96 % 1005,1 hPa 0,0 l/m 14,0 km/h (3 Bft) S 180 5,2 C -3,0 C 17,7 km/h (3 Bft)
31.05.2013 08:05 5,7 C 95 % 1005,1 hPa 0,0 l/m 14,8 km/h (3 Bft) S-SW 202 5,0 C -3,6 C 23,0 km/h (4 Bft)
31.05.2013 08:10 5,7 C 95 % 1005,1 hPa 0,7 l/m 13,0 km/h (3 Bft) NW 315 5,0 C -2,2 C 11,9 km/h (2 Bft)
31.05.2013 08:15 5,7 C 95 % 1005,1 hPa 0,0 l/m 13,0 km/h (3 Bft) O-SO 112 5,0 C -2,2 C 18,2 km/h (3 Bft)
31.05.2013 08:20 5,7 C 95 % 1005,0 hPa 0,0 l/m 13,7 km/h (3 Bft) S 180 5,0 C -2,7 C 22,5 km/h (4 Bft)
31.05.2013 08:25 5,7 C 95 % 1005,0 hPa 0,0 l/m 14,6 km/h (3 Bft) S 180 5,0 C -3,2 C 19,3 km/h (3 Bft)
31.05.2013 08:30 5,7 C 95 % 1005,0 hPa 0,0 l/m 14,6 km/h (3 Bft) S 180 5,0 C -3,2 C 19,3 km/h (3 Bft)
31.05.2013 08:35 5,8 C 94 % 1005,0 hPa 0,0 l/m 13,8 km/h (3 Bft) S 180 4,9 C -2,5 C 14,2 km/h (3 Bft)
31.05.2013 08:40 5,8 C 94 % 1004,7 hPa 0,0 l/m 14,3 km/h (3 Bft) S-SO 157 4,9 C -2,8 C 33,5 km/h (5 Bft)
31.05.2013 08:45 5,9 C 94 % 1004,7 hPa 0,0 l/m 15,4 km/h (3 Bft) S 180 5,0 C -3,7 C 26,4 km/h (4 Bft)
31.05.2013 08:50 5,8 C 94 % 1004,7 hPa 0,0 l/m 14,3 km/h (3 Bft) S 180 4,9 C -2,8 C 13,8 km/h (3 Bft)
31.05.2013 08:55 5,8 C 93 % 1004,7 hPa 0,0 l/m 13,8 km/h (3 Bft) S-SW 202 4,8 C -2,3 C 19,0 km/h (3 Bft)
31.05.2013 09:00 5,8 C 93 % 1004,9 hPa 0,0 l/m 13,7 km/h (3 Bft) W-SW 247 4,8 C -2,4 C 13,0 km/h (3 Bft)
31.05.2013 09:05 5,8 C 93 % 1004,9 hPa 0,0 l/m 12,7 km/h (3 Bft) SO 135 4,8 C -1,6 C 12,1 km/h (2 Bft)
31.05.2013 09:10 5,8 C 93 % 1004,9 hPa 0,0 l/m 10,3 km/h (2 Bft) SW 225 4,8 C 0,5 C 12,7 km/h (3 Bft)
31.05.2013 09:15 5,8 C 93 % 1004,9 hPa 0,0 l/m 10,5 km/h (2 Bft) S-SO 157 4,8 C 0,4 C 19,3 km/h (3 Bft)
31.05.2013 09:20 5,8 C 93 % 1005,0 hPa 0,0 l/m 12,2 km/h (2 Bft) S-SO 157 4,8 C -1,2 C 11,7 km/h (2 Bft)
31.05.2013 09:25 5,9 C 93 % 1005,0 hPa 0,0 l/m 13,0 km/h (3 Bft) S-SO 157 4,9 C -1,8 C 20,1 km/h (4 Bft)
31.05.2013 09:30 5,9 C 93 % 1005,0 hPa 0,0 l/m 12,7 km/h (3 Bft) SO 135 4,9 C -1,6 C 13,8 km/h (3 Bft)
31.05.2013 09:35 5,9 C 93 % 1005,0 hPa 0,0 l/m 11,7 km/h (2 Bft) SO 135 4,9 C -0,8 C 12,1 km/h (2 Bft)
31.05.2013 09:40 5,9 C 93 % 1005,2 hPa 0,0 l/m 11,1 km/h (2 Bft) SO 135 4,9 C -0,3 C 15,1 km/h (3 Bft)
31.05.2013 09:45 5,9 C 93 % 1005,2 hPa 0,0 l/m 11,1 km/h (2 Bft) SO 135 4,9 C -0,3 C 15,1 km/h (3 Bft)
31.05.2013 09:50 5,8 C 93 % 1005,2 hPa 0,0 l/m 10,5 km/h (2 Bft) S 180 4,8 C 0,4 C 13,4 km/h (3 Bft)
31.05.2013 09:55 5,8 C 93 % 1005,2 hPa 0,0 l/m 11,3 km/h (2 Bft) W-SW 247 4,8 C -0,6 C 16,6 km/h (3 Bft)
31.05.2013 10:00 6,0 C 91 % 1005,2 hPa 0,0 l/m 11,4 km/h (2 Bft) S 180 4,6 C -0,5 C 10,1 km/h (2 Bft)
31.05.2013 10:05 6,2 C 91 % 1005,2 hPa 0,0 l/m 10,1 km/h (2 Bft) S 180 4,8 C 0,8 C 13,2 km/h (3 Bft)
31.05.2013 10:10 6,2 C 91 % 1005,2 hPa 0,7 l/m 9,7 km/h (2 Bft) SO 135 4,8 C 1,4 C 13,8 km/h (3 Bft)
31.05.2013 10:15 6,1 C 91 % 1005,2 hPa 0,0 l/m 12,2 km/h (2 Bft) S-SO 157 4,7 C -0,9 C 15,0 km/h (3 Bft)
31.05.2013 10:20 6,0 C 91 % 1004,9 hPa 0,0 l/m 13,4 km/h (3 Bft) S 180 4,6 C -2,1 C 14,6 km/h (3 Bft)
31.05.2013 10:25 6,0 C 91 % 1004,9 hPa 0,0 l/m 13,4 km/h (3 Bft) S 180 4,6 C -2,1 C 14,6 km/h (3 Bft)
31.05.2013 10:30 6,1 C 91 % 1004,9 hPa 0,0 l/m 11,7 km/h (2 Bft) S 180 4,7 C -0,5 C 33,8 km/h (5 Bft)
31.05.2013 10:35 6,0 C 91 % 1004,9 hPa 0,0 l/m 11,7 km/h (2 Bft) S-SW 202 4,6 C -0,5 C 20,4 km/h (4 Bft)
31.05.2013 10:40 6,1 C 91 % 1004,9 hPa 0,0 l/m 12,6 km/h (3 Bft) S 180 4,7 C -1,4 C 14,2 km/h (3 Bft)
31.05.2013 10:45 6,1 C 91 % 1004,9 hPa 0,0 l/m 14,0 km/h (3 Bft) SW 225 4,7 C -2,5 C 24,6 km/h (4 Bft)
31.05.2013 10:50 6,1 C 90 % 1004,9 hPa 0,0 l/m 13,8 km/h (3 Bft) S-SW 202 4,6 C -2,3 C 18,8 km/h (3 Bft)
31.05.2013 10:55 6,0 C 90 % 1004,9 hPa 0,0 l/m 12,9 km/h (3 Bft) S 180 4,5 C -1,7 C 16,3 km/h (3 Bft)
31.05.2013 11:00 6,1 C 90 % 1004,9 hPa 0,0 l/m 12,4 km/h (3 Bft) S-SW 202 4,6 C -1,2 C 9,8 km/h (2 Bft)
31.05.2013 11:05 6,1 C 90 % 1004,9 hPa 0,0 l/m 10,9 km/h (2 Bft) S-SO 157 4,6 C 0,2 C 17,7 km/h (3 Bft)
31.05.2013 11:10 6,3 C 90 % 1004,9 hPa 0,7 l/m 11,9 km/h (2 Bft) S-SO 157 4,8 C -0,6 C 21,1 km/h (4 Bft)
31.05.2013 11:15 6,3 C 90 % 1004,9 hPa 0,0 l/m 12,6 km/h (3 Bft) S 180 4,8 C -1,0 C 12,7 km/h (3 Bft)
31.05.2013 11:20 6,3 C 90 % 1004,9 hPa 0,0 l/m 12,6 km/h (3 Bft) S-SO 157 4,8 C -0,9 C 15,6 km/h (3 Bft)
31.05.2013 11:25 6,3 C 90 % 1004,9 hPa 0,0 l/m 12,9 km/h (3 Bft) S 180 4,8 C -1,1 C 15,4 km/h (3 Bft)
31.05.2013 11:30 6,3 C 90 % 1004,9 hPa 0,0 l/m 12,9 km/h (3 Bft) S-SW 202 4,8 C -1,1 C 12,1 km/h (2 Bft)
31.05.2013 11:35 6,3 C 90 % 1004,9 hPa 0,0 l/m 12,7 km/h (3 Bft) S-SO 157 4,8 C -1,2 C 20,9 km/h (4 Bft)
31.05.2013 11:40 6,3 C 90 % 1005,1 hPa 0,0 l/m 12,7 km/h (3 Bft) S 180 4,8 C -1,2 C 19,0 km/h (3 Bft)
31.05.2013 11:45 6,2 C 90 % 1005,1 hPa 0,7 l/m 13,5 km/h (3 Bft) S 180 4,7 C -2,0 C 21,9 km/h (4 Bft)
31.05.2013 11:50 6,2 C 90 % 1005,1 hPa 0,0 l/m 13,5 km/h (3 Bft) S 180 4,7 C -2,0 C 21,9 km/h (4 Bft)
31.05.2013 11:55 6,2 C 90 % 1005,1 hPa 0,0 l/m 13,7 km/h (3 Bft) S-SO 157 4,7 C -2,1 C 13,8 km/h (3 Bft)
31.05.2013 12:00 6,2 C 90 % 1005,4 hPa 0,0 l/m 12,1 km/h (2 Bft) S-SW 202 4,7 C -0,7 C 13,2 km/h (3 Bft)
31.05.2013 12:05 6,2 C 90 % 1005,4 hPa 0,0 l/m 12,1 km/h (2 Bft) S-SW 202 4,7 C -0,7 C 13,2 km/h (3 Bft)
31.05.2013 12:10 6,4 C 90 % 1005,4 hPa 0,7 l/m 11,3 km/h (2 Bft) S-SW 202 4,9 C -0,1 C 20,1 km/h (4 Bft)
31.05.2013 12:15 6,4 C 90 % 1005,4 hPa 0,0 l/m 11,3 km/h (2 Bft) S-SW 202 4,9 C -0,1 C 20,1 km/h (4 Bft)
31.05.2013 12:20 6,4 C 90 % 1005,4 hPa 0,7 l/m 14,3 km/h (3 Bft) SO 135 4,9 C -2,5 C 14,5 km/h (3 Bft)
31.05.2013 12:25 6,6 C 90 % 1005,4 hPa 0,0 l/m 14,5 km/h (3 Bft) S 180 5,1 C -2,5 C 26,1 km/h (4 Bft)
31.05.2013 12:30 6,5 C 90 % 1005,4 hPa 0,0 l/m 13,0 km/h (3 Bft) SO 135 5,0 C -1,1 C 14,0 km/h (3 Bft)
31.05.2013 12:35 6,2 C 90 % 1005,4 hPa 0,7 l/m 13,5 km/h (3 Bft) S-SW 202 4,7 C -1,9 C 15,9 km/h (3 Bft)
31.05.2013 12:40 6,3 C 91 % 1005,8 hPa 0,0 l/m 13,4 km/h (3 Bft) SO 135 4,9 C -1,7 C 20,0 km/h (4 Bft)
31.05.2013 12:45 6,5 C 91 % 1005,8 hPa 0,0 l/m 12,9 km/h (3 Bft) S 180 5,1 C -1,2 C 19,5 km/h (3 Bft)
31.05.2013 12:50 6,4 C 91 % 1005,8 hPa 0,0 l/m 13,5 km/h (3 Bft) S 180 5,0 C -1,5 C 23,7 km/h (4 Bft)
31.05.2013 12:55 6,1 C 91 % 1005,8 hPa 0,7 l/m 13,7 km/h (3 Bft) N-NO 22 4,7 C -2,0 C 16,3 km/h (3 Bft)
31.05.2013 13:00 6,0 C 91 % 1005,8 hPa 0,0 l/m 13,8 km/h (3 Bft) S 180 4,6 C -2,2 C 34,4 km/h (5 Bft)
31.05.2013 13:05 6,0 C 91 % 1005,8 hPa 0,0 l/m 13,8 km/h (3 Bft) S 180 4,6 C -2,2 C 18,8 km/h (3 Bft)
31.05.2013 13:10 6,2 C 91 % 1005,8 hPa 0,0 l/m 12,7 km/h (3 Bft) S 180 4,8 C -1,3 C 19,3 km/h (3 Bft)
31.05.2013 13:15 6,3 C 91 % 1005,8 hPa 0,7 l/m 13,0 km/h (3 Bft) S 180 4,9 C -1,5 C 34,6 km/h (5 Bft)
31.05.2013 13:20 6,5 C 91 % 1005,8 hPa 0,0 l/m 14,8 km/h (3 Bft) S-SO 157 5,1 C -2,9 C 16,7 km/h (3 Bft)
31.05.2013 13:25 6,6 C 91 % 1005,8 hPa 0,0 l/m 14,2 km/h (3 Bft) S-SW 202 5,2 C -1,9 C 19,0 km/h (3 Bft)
31.05.2013 13:30 6,2 C 91 % 1005,8 hPa 0,0 l/m 13,2 km/h (3 Bft) O-SO 112 4,8 C -1,1 C 25,3 km/h (4 Bft)
31.05.2013 13:35 6,2 C 91 % 1005,8 hPa 0,0 l/m 15,3 km/h (3 Bft) S 180 4,8 C -3,0 C 18,0 km/h (3 Bft)
31.05.2013 13:40 6,0 C 91 % 1005,9 hPa 0,0 l/m 16,7 km/h (3 Bft) O 90 4,6 C -4,1 C 15,9 km/h (3 Bft)
31.05.2013 13:45 6,2 C 91 % 1005,9 hPa 0,0 l/m 15,0 km/h (3 Bft) SW 225 4,8 C -3,0 C 13,4 km/h (3 Bft)
31.05.2013 13:50 6,3 C 91 % 1005,9 hPa 0,0 l/m 12,7 km/h (3 Bft) S 180 4,9 C -1,2 C 8,2 km/h (2 Bft)
31.05.2013 13:55 6,3 C 91 % 1005,9 hPa 0,7 l/m 11,6 km/h (2 Bft) S-SO 157 4,9 C -0,3 C 15,8 km/h (3 Bft)
31.05.2013 14:00 6,2 C 91 % 1006,0 hPa 0,0 l/m 10,8 km/h (2 Bft) W-SW 247 4,8 C 0,4 C 8,9 km/h (2 Bft)
31.05.2013 14:05 5,9 C 93 % 1006,0 hPa 0,0 l/m 10,5 km/h (2 Bft) S 180 4,9 C 0,4 C 11,4 km/h (2 Bft)
31.05.2013 14:10 5,9 C 93 % 1006,0 hPa 0,0 l/m 11,1 km/h (2 Bft) O-SO 112 4,9 C -0,3 C 12,6 km/h (3 Bft)
31.05.2013 14:15 5,9 C 93 % 1006,0 hPa 0,7 l/m 10,3 km/h (2 Bft) S-SW 202 4,9 C 0,4 C 9,3 km/h (2 Bft)
31.05.2013 14:20 5,8 C 93 % 1006,1 hPa 0,0 l/m 10,3 km/h (2 Bft) S-SO 157 4,8 C 0,2 C 17,2 km/h (3 Bft)
31.05.2013 14:25 6,0 C 92 % 1006,1 hPa 0,7 l/m 9,0 km/h (2 Bft) S-SO 157 4,8 C 1,6 C 13,7 km/h (3 Bft)
31.05.2013 14:30 6,1 C 93 % 1006,1 hPa 0,0 l/m 8,7 km/h (2 Bft) S 180 5,1 C 2,2 C 11,1 km/h (2 Bft)
31.05.2013 14:35 6,2 C 93 % 1006,1 hPa 0,0 l/m 9,8 km/h (2 Bft) O-SO 112 5,2 C 1,3 C 17,4 km/h (3 Bft)
31.05.2013 14:40 6,2 C 93 % 1006,1 hPa 0,0 l/m 9,8 km/h (2 Bft) O-SO 112 5,2 C 1,3 C 17,4 km/h (3 Bft)
31.05.2013 14:45 6,7 C 93 % 1006,1 hPa 0,0 l/m 9,5 km/h (2 Bft) S 180 5,6 C 2,2 C 18,2 km/h (3 Bft)
31.05.2013 14:50 6,9 C 93 % 1006,1 hPa 0,0 l/m 10,0 km/h (2 Bft) S 180 5,8 C 2,2 C 18,8 km/h (3 Bft)
31.05.2013 14:55 7,0 C 93 % 1006,1 hPa 0,0 l/m 11,7 km/h (2 Bft) S-SW 202 5,9 C 1,3 C 23,5 km/h (4 Bft)
31.05.2013 15:00 6,9 C 93 % 1005,9 hPa 0,0 l/m 12,1 km/h (2 Bft) S 180 5,8 C 1,0 C 16,3 km/h (3 Bft)
31.05.2013 15:05 6,7 C 93 % 1005,9 hPa 0,0 l/m 12,7 km/h (3 Bft) S 180 5,6 C 0,1 C 16,1 km/h (3 Bft)
31.05.2013 15:10 6,9 C 93 % 1005,9 hPa 0,0 l/m 11,1 km/h (2 Bft) S 180 5,8 C 1,4 C 13,0 km/h (3 Bft)
31.05.2013 15:15 6,9 C 93 % 1005,9 hPa 0,0 l/m 11,4 km/h (2 Bft) S 180 5,8 C 1,6 C 13,0 km/h (3 Bft)
31.05.2013 15:20 6,9 C 93 % 1005,9 hPa 0,0 l/m 11,4 km/h (2 Bft) S 180 5,8 C 1,6 C 13,0 km/h (3 Bft)
31.05.2013 15:25 7,4 C 93 % 1006,2 hPa 0,0 l/m 14,3 km/h (3 Bft) SO 135 6,3 C 0,2 C 14,0 km/h (3 Bft)
31.05.2013 15:30 7,6 C 92 % 1006,2 hPa 0,0 l/m 15,4 km/h (3 Bft) N 360 6,4 C -0,3 C 13,8 km/h (3 Bft)
31.05.2013 15:35 7,8 C 92 % 1006,2 hPa 0,0 l/m 14,8 km/h (3 Bft) S-SO 157 6,6 C 0,5 C 9,0 km/h (2 Bft)
31.05.2013 15:40 7,8 C 92 % 1006,1 hPa 0,0 l/m 12,6 km/h (3 Bft) S 180 6,6 C 2,3 C 12,7 km/h (3 Bft)
31.05.2013 15:45 8,1 C 92 % 1006,1 hPa 0,0 l/m 12,6 km/h (3 Bft) S 180 6,9 C 2,4 C 19,2 km/h (3 Bft)
31.05.2013 15:50 8,4 C 92 % 1006,1 hPa 0,0 l/m 14,2 km/h (3 Bft) SO 135 7,2 C 1,9 C 21,6 km/h (4 Bft)
31.05.2013 15:55 8,6 C 91 % 1006,1 hPa 0,0 l/m 15,3 km/h (3 Bft) S 180 7,2 C 1,8 C 26,6 km/h (4 Bft)
31.05.2013 16:00 8,8 C 91 % 1006,0 hPa 0,0 l/m 14,8 km/h (3 Bft) S-SW 202 7,4 C 2,4 C 23,2 km/h (4 Bft)
31.05.2013 16:05 9,3 C 91 % 1006,0 hPa 0,0 l/m 13,8 km/h (3 Bft) SO 135 7,9 C 3,8 C 19,3 km/h (3 Bft)
31.05.2013 16:10 9,5 C 90 % 1006,0 hPa 0,0 l/m 14,3 km/h (3 Bft) S 180 7,9 C 4,1 C 26,4 km/h (4 Bft)
31.05.2013 16:15 9,3 C 90 % 1006,0 hPa 0,0 l/m 15,1 km/h (3 Bft) W-NW 292 7,7 C 3,6 C 12,1 km/h (2 Bft)
31.05.2013 16:20 9,1 C 90 % 1006,2 hPa 0,0 l/m 15,3 km/h (3 Bft) S-SO 157 7,5 C 3,3 C 17,2 km/h (3 Bft)
31.05.2013 16:25 8,7 C 90 % 1006,2 hPa 0,0 l/m 13,5 km/h (3 Bft) S 180 7,2 C 3,7 C 15,1 km/h (3 Bft)
31.05.2013 16:30 8,6 C 90 % 1006,2 hPa 0,0 l/m 12,1 km/h (2 Bft) S 180 7,1 C 4,2 C 13,8 km/h (3 Bft)
31.05.2013 16:35 8,6 C 90 % 1006,2 hPa 0,0 l/m 12,1 km/h (2 Bft) S 180 7,1 C 4,2 C 13,8 km/h (3 Bft)
31.05.2013 16:40 8,4 C 91 % 1006,2 hPa 0,0 l/m 11,3 km/h (2 Bft) S-SO 157 7,0 C 4,1 C 14,8 km/h (3 Bft)
31.05.2013 16:45 8,6 C 91 % 1006,2 hPa 0,0 l/m 12,9 km/h (3 Bft) S 180 7,2 C 2,8 C 17,5 km/h (3 Bft)
31.05.2013 16:50 8,6 C 91 % 1006,2 hPa 0,0 l/m 12,9 km/h (3 Bft) S 180 7,2 C 2,8 C 17,5 km/h (3 Bft)
31.05.2013 16:55 8,6 C 91 % 1006,2 hPa 0,0 l/m 14,6 km/h (3 Bft) S-SO 157 7,2 C 1,8 C 20,1 km/h (4 Bft)
31.05.2013 17:00 8,5 C 91 % 1005,8 hPa 0,0 l/m 15,1 km/h (3 Bft) S 180 7,1 C 1,5 C 19,3 km/h (3 Bft)
31.05.2013 17:05 8,2 C 91 % 1005,8 hPa 0,0 l/m 15,9 km/h (3 Bft) S-SW 202 6,8 C 0,6 C 12,7 km/h (3 Bft)
31.05.2013 17:10 7,9 C 92 % 1005,8 hPa 0,0 l/m 17,1 km/h (3 Bft) S-SO 157 6,7 C -0,8 C 20,1 km/h (4 Bft)
31.05.2013 17:15 7,7 C 92 % 1005,8 hPa 0,0 l/m 16,4 km/h (3 Bft) S 180 6,5 C -1,2 C 27,2 km/h (4 Bft)
31.05.2013 17:20 7,6 C 92 % 1006,0 hPa 0,0 l/m 17,1 km/h (3 Bft) S-SW 202 6,4 C -2,1 C 29,6 km/h (5 Bft)
31.05.2013 17:25 7,3 C 92 % 1006,0 hPa 0,0 l/m 16,4 km/h (3 Bft) SO 135 6,1 C -2,5 C 10,8 km/h (2 Bft)
31.05.2013 17:30 7,3 C 92 % 1006,0 hPa 0,0 l/m 15,3 km/h (3 Bft) SO 135 6,1 C -1,8 C 17,4 km/h (3 Bft)
31.05.2013 17:35 7,3 C 92 % 1006,0 hPa 0,0 l/m 15,3 km/h (3 Bft) SO 135 6,1 C -1,8 C 17,4 km/h (3 Bft)
31.05.2013 17:40 7,0 C 92 % 1006,1 hPa 0,0 l/m 15,3 km/h (3 Bft) S 180 5,8 C -2,2 C 18,0 km/h (3 Bft)
31.05.2013 17:45 6,6 C 93 % 1006,1 hPa 0,0 l/m 15,3 km/h (3 Bft) S 180 5,6 C -2,7 C 15,6 km/h (3 Bft)
31.05.2013 17:50 6,5 C 93 % 1006,1 hPa 0,0 l/m 13,7 km/h (3 Bft) S-SO 157 5,5 C -1,9 C 13,8 km/h (3 Bft)
31.05.2013 17:55 6,4 C 93 % 1006,1 hPa 0,7 l/m 12,4 km/h (3 Bft) S 180 5,4 C -1,0 C 14,6 km/h (3 Bft)
31.05.2013 18:00 6,4 C 93 % 1006,0 hPa 0,7 l/m 11,4 km/h (2 Bft) S 180 5,4 C -0,1 C 11,6 km/h (2 Bft)
31.05.2013 18:05 6,3 C 93 % 1006,0 hPa 0,0 l/m 12,9 km/h (3 Bft) S 180 5,3 C -1,3 C 14,0 km/h (3 Bft)
31.05.2013 18:10 6,3 C 93 % 1006,0 hPa 0,0 l/m 12,6 km/h (3 Bft) S 180 5,3 C -1,2 C 9,3 km/h (2 Bft)
31.05.2013 18:15 6,2 C 94 % 1006,0 hPa 0,7 l/m 10,5 km/h (2 Bft) SO 135 5,3 C 0,6 C 5,8 km/h (2 Bft)
31.05.2013 18:20 6,2 C 94 % 1006,1 hPa 0,0 l/m 11,4 km/h (2 Bft) O 90 5,3 C -0,2 C 13,2 km/h (3 Bft)
31.05.2013 18:25 6,1 C 94 % 1006,1 hPa 0,7 l/m 10,8 km/h (2 Bft) S-SO 157 5,2 C 0,2 C 12,2 km/h (2 Bft)
31.05.2013 18:30 6,1 C 94 % 1006,1 hPa 0,0 l/m 10,8 km/h (2 Bft) S-SO 157 5,2 C 0,2 C 12,2 km/h (2 Bft)
31.05.2013 18:35 6,1 C 94 % 1006,1 hPa 1,4 l/m 10,1 km/h (2 Bft) S-SO 157 5,2 C 0,8 C 19,6 km/h (3 Bft)
31.05.2013 18:40 6,1 C 94 % 1006,2 hPa 0,0 l/m 9,7 km/h (2 Bft) S 180 5,2 C 1,3 C 15,1 km/h (3 Bft)
31.05.2013 18:45 6,1 C 94 % 1006,2 hPa 0,7 l/m 10,5 km/h (2 Bft) S-SW 202 5,2 C 0,5 C 16,4 km/h (3 Bft)
31.05.2013 18:50 6,1 C 94 % 1006,2 hPa 0,7 l/m 11,3 km/h (2 Bft) S 180 5,2 C -0,3 C 10,0 km/h (2 Bft)
31.05.2013 18:55 6,1 C 94 % 1006,2 hPa 0,7 l/m 11,1 km/h (2 Bft) O-SO 112 5,2 C 0,1 C 11,4 km/h (2 Bft)
31.05.2013 19:00 6,1 C 95 % 1005,9 hPa 0,0 l/m 11,4 km/h (2 Bft) SO 135 5,4 C -0,2 C 15,4 km/h (3 Bft)
31.05.2013 19:05 6,2 C 95 % 1005,9 hPa 0,0 l/m 11,6 km/h (2 Bft) S 180 5,5 C -0,4 C 14,3 km/h (3 Bft)
31.05.2013 19:10 6,3 C 95 % 1005,9 hPa 0,7 l/m 12,1 km/h (2 Bft) SO 135 5,6 C -0,7 C 11,7 km/h (2 Bft)
31.05.2013 19:15 6,3 C 95 % 1005,9 hPa 0,0 l/m 14,3 km/h (3 Bft) S 180 5,6 C -2,5 C 16,4 km/h (3 Bft)
31.05.2013 19:20 6,3 C 95 % 1005,6 hPa 0,0 l/m 15,0 km/h (3 Bft) S 180 5,6 C -3,0 C 27,0 km/h (4 Bft)
31.05.2013 19:25 6,3 C 95 % 1005,6 hPa 0,0 l/m 15,6 km/h (3 Bft) S 180 5,6 C -3,4 C 22,9 km/h (4 Bft)
31.05.2013 19:30 6,3 C 95 % 1005,6 hPa 0,0 l/m 14,5 km/h (3 Bft) S-SO 157 5,6 C -2,6 C 11,9 km/h (2 Bft)
31.05.2013 19:35 6,2 C 95 % 1005,6 hPa 0,0 l/m 13,4 km/h (3 Bft) S-SO 157 5,5 C -1,7 C 11,9 km/h (2 Bft)
31.05.2013 19:40 6,2 C 95 % 1005,6 hPa 0,0 l/m 13,4 km/h (3 Bft) S-SO 157 5,5 C -1,7 C 11,9 km/h (2 Bft)
31.05.2013 19:45 6,2 C 95 % 1005,8 hPa 0,7 l/m 12,2 km/h (2 Bft) SO 135 5,5 C -0,8 C 9,7 km/h (2 Bft)
31.05.2013 19:50 6,2 C 95 % 1005,8 hPa 0,0 l/m 15,3 km/h (3 Bft) S 180 5,5 C -3,1 C 38,1 km/h (5 Bft)
31.05.2013 19:55 6,1 C 95 % 1005,8 hPa 0,0 l/m 15,0 km/h (3 Bft) SO 135 5,4 C -3,0 C 11,3 km/h (2 Bft)
31.05.2013 20:00 6,1 C 95 % 1005,8 hPa 0,0 l/m 15,0 km/h (3 Bft) SO 135 5,4 C -3,0 C 11,3 km/h (2 Bft)
31.05.2013 20:05 6,2 C 95 % 1005,2 hPa 0,0 l/m 14,0 km/h (3 Bft) S 180 5,5 C -2,3 C 18,5 km/h (3 Bft)
31.05.2013 20:10 6,3 C 95 % 1005,2 hPa 0,0 l/m 12,2 km/h (2 Bft) S 180 5,6 C -0,8 C 12,1 km/h (2 Bft)
31.05.2013 20:15 6,4 C 95 % 1005,2 hPa 0,7 l/m 11,1 km/h (2 Bft) S-SO 157 5,7 C 0,1 C 11,6 km/h (2 Bft)
31.05.2013 20:20 6,4 C 95 % 1005,2 hPa 0,0 l/m 11,4 km/h (2 Bft) S 180 5,7 C 0,1 C 14,3 km/h (3 Bft)
31.05.2013 20:25 6,4 C 95 % 1005,2 hPa 0,7 l/m 12,6 km/h (3 Bft) S-SO 157 5,7 C -0,9 C 14,0 km/h (3 Bft)
31.05.2013 20:30 6,4 C 96 % 1005,2 hPa 0,0 l/m 12,7 km/h (3 Bft) S 180 5,8 C -0,9 C 17,1 km/h (3 Bft)
31.05.2013 20:35 6,4 C 96 % 1005,2 hPa 0,7 l/m 12,6 km/h (3 Bft) S-SW 202 5,8 C -0,9 C 19,8 km/h (3 Bft)
31.05.2013 20:40 6,5 C 96 % 1005,6 hPa 0,0 l/m 13,5 km/h (3 Bft) O-NO 67 5,9 C -1,5 C 18,8 km/h (3 Bft)
31.05.2013 20:45 6,5 C 96 % 1005,6 hPa 0,7 l/m 13,2 km/h (3 Bft) S-SO 157 5,9 C -1,4 C 14,0 km/h (3 Bft)
31.05.2013 20:50 6,5 C 96 % 1005,6 hPa 0,0 l/m 11,6 km/h (2 Bft) S 180 5,9 C -0,0 C 20,8 km/h (4 Bft)
31.05.2013 20:55 6,5 C 96 % 1005,6 hPa 0,0 l/m 11,1 km/h (2 Bft) S 180 5,9 C 0,5 C 15,1 km/h (3 Bft)
31.05.2013 21:00 6,5 C 96 % 1005,7 hPa 0,7 l/m 12,1 km/h (2 Bft) S 180 5,9 C -0,2 C 10,3 km/h (2 Bft)
31.05.2013 21:05 6,5 C 96 % 1005,7 hPa 0,7 l/m 11,4 km/h (2 Bft) S 180 5,9 C 0,3 C 8,2 km/h (2 Bft)
31.05.2013 21:10 6,5 C 96 % 1005,7 hPa 0,0 l/m 10,6 km/h (2 Bft) S-SO 157 5,9 C 1,0 C 20,4 km/h (4 Bft)
31.05.2013 21:15 6,5 C 96 % 1005,7 hPa 0,7 l/m 9,0 km/h (2 Bft) SO 135 5,9 C 2,6 C 12,1 km/h (2 Bft)
31.05.2013 21:20 6,5 C 96 % 1006,0 hPa 0,0 l/m 9,0 km/h (2 Bft) S 180 5,9 C 2,6 C 11,1 km/h (2 Bft)
31.05.2013 21:25 6,6 C 96 % 1006,0 hPa 0,7 l/m 9,7 km/h (2 Bft) SO 135 6,0 C 2,0 C 9,7 km/h (2 Bft)
31.05.2013 21:30 6,6 C 96 % 1006,0 hPa 0,7 l/m 9,0 km/h (2 Bft) S 180 6,0 C 2,6 C 13,4 km/h (3 Bft)
31.05.2013 21:35 6,6 C 96 % 1006,0 hPa 0,0 l/m 8,9 km/h (2 Bft) SO 135 6,0 C 2,7 C 11,1 km/h (2 Bft)
31.05.2013 21:40 6,6 C 96 % 1005,9 hPa 0,7 l/m 9,5 km/h (2 Bft) SO 135 6,0 C 2,1 C 14,8 km/h (3 Bft)
31.05.2013 21:45 6,7 C 96 % 1005,9 hPa 0,0 l/m 10,1 km/h (2 Bft) S 180 6,1 C 1,7 C 11,1 km/h (2 Bft)
31.05.2013 21:50 6,7 C 96 % 1005,9 hPa 0,0 l/m 11,1 km/h (2 Bft) S 180 6,1 C 0,8 C 10,5 km/h (2 Bft)
31.05.2013 21:55 6,7 C 96 % 1005,9 hPa 0,0 l/m 10,3 km/h (2 Bft) S 180 6,1 C 1,5 C 14,0 km/h (3 Bft)
31.05.2013 22:00 6,7 C 96 % 1006,3 hPa 0,0 l/m 8,7 km/h (2 Bft) O-SO 112 6,1 C 3,3 C 9,8 km/h (2 Bft)
31.05.2013 22:05 6,7 C 96 % 1006,3 hPa 0,0 l/m 8,0 km/h (2 Bft) S 180 6,1 C 3,9 C 8,2 km/h (2 Bft)
31.05.2013 22:10 6,8 C 96 % 1006,3 hPa 0,0 l/m 8,9 km/h (2 Bft) S-SO 157 6,2 C 3,0 C 10,9 km/h (2 Bft)
31.05.2013 22:15 6,8 C 96 % 1006,3 hPa 0,0 l/m 10,6 km/h (2 Bft) S-SO 157 6,2 C 1,4 C 12,9 km/h (3 Bft)
31.05.2013 22:20 6,9 C 96 % 1006,5 hPa 0,7 l/m 11,3 km/h (2 Bft) S-SO 157 6,3 C 0,9 C 11,6 km/h (2 Bft)
31.05.2013 22:25 6,9 C 96 % 1006,5 hPa 0,0 l/m 10,0 km/h (2 Bft) S 180 6,3 C 2,2 C 13,7 km/h (3 Bft)
31.05.2013 22:30 6,9 C 96 % 1006,5 hPa 0,0 l/m 8,9 km/h (2 Bft) S 180 6,3 C 3,2 C 9,8 km/h (2 Bft)
31.05.2013 22:35 6,9 C 96 % 1006,5 hPa 0,0 l/m 8,0 km/h (2 Bft) S-SO 157 6,3 C 4,0 C 12,1 km/h (2 Bft)
31.05.2013 22:40 6,9 C 96 % 1006,6 hPa 0,0 l/m 7,7 km/h (2 Bft) S 180 6,3 C 4,4 C 12,9 km/h (3 Bft)
31.05.2013 22:45 6,9 C 96 % 1006,6 hPa 0,0 l/m 8,4 km/h (2 Bft) S-SW 202 6,3 C 3,7 C 11,1 km/h (2 Bft)
31.05.2013 22:50 6,9 C 96 % 1006,6 hPa 0,0 l/m 7,6 km/h (2 Bft) SO 135 6,3 C 4,6 C 8,7 km/h (2 Bft)
31.05.2013 22:55 6,9 C 96 % 1006,6 hPa 0,0 l/m 6,6 km/h (2 Bft) S-SO 157 6,3 C 5,7 C 6,8 km/h (2 Bft)
31.05.2013 23:00 7,0 C 96 % 1006,4 hPa 0,7 l/m 6,8 km/h (2 Bft) S-SW 202 6,4 C 5,6 C 9,8 km/h (2 Bft)
31.05.2013 23:05 6,9 C 96 % 1006,4 hPa 0,0 l/m 6,6 km/h (2 Bft) SW 225 6,3 C 5,8 C 5,8 km/h (2 Bft)
31.05.2013 23:10 7,0 C 96 % 1006,4 hPa 0,0 l/m 6,6 km/h (2 Bft) S-SO 157 6,4 C 5,8 C 11,6 km/h (2 Bft)
31.05.2013 23:15 7,0 C 96 % 1006,4 hPa 0,0 l/m 5,8 km/h (2 Bft) O-SO 112 6,4 C 6,2 C 3,9 km/h (1 Bft)
31.05.2013 23:20 7,0 C 96 % 1006,7 hPa 0,0 l/m 5,5 km/h (1 Bft) W 270 6,4 C 6,3 C 5,0 km/h (1 Bft)
31.05.2013 23:25 7,0 C 96 % 1006,7 hPa 0,0 l/m 5,3 km/h (1 Bft) S 180 6,4 C 6,3 C 8,9 km/h (2 Bft)
31.05.2013 23:30 7,1 C 96 % 1006,7 hPa 0,0 l/m 5,5 km/h (1 Bft) SO 135 6,5 C 6,4 C 8,2 km/h (2 Bft)
31.05.2013 23:35 7,1 C 96 % 1006,7 hPa 0,0 l/m 5,5 km/h (1 Bft) S 180 6,5 C 6,4 C 8,5 km/h (2 Bft)
31.05.2013 23:40 7,1 C 96 % 1006,6 hPa 0,0 l/m 5,8 km/h (2 Bft) NW 315 6,5 C 6,3 C 11,1 km/h (2 Bft)
31.05.2013 23:45 7,1 C 96 % 1006,6 hPa 0,0 l/m 6,4 km/h (2 Bft) S 180 6,5 C 6,1 C 7,9 km/h (2 Bft)
31.05.2013 23:50 7,1 C 96 % 1006,6 hPa 0,0 l/m 5,8 km/h (2 Bft) SO 135 6,5 C 6,3 C 5,1 km/h (1 Bft)
31.05.2013 23:55 7,2 C 96 % 1006,6 hPa 0,0 l/m 5,0 km/h (1 Bft) S 180 6,6 C 6,6 C 10,9 km/h (2 Bft)
_ Min-Zeit 02:05 16:35 08:55 - 23:55 - - 02:05 13:40 23:15
Minimum _ 4,6 C 90 % 1004,7 hPa - 5,0 km/h (1 Bft) - - 4,0 C -4,1 C 3,9 km/h (1 Bft)
_ Max-Zeit 16:10 23:55 00:15 18:35 17:20 - - 16:10 23:55 19:50
Maximum _ 9,5 C 96 % 1008,0 hPa 1,4 l/m 17,1 km/h
S-SW (3 Bft)
- - 7,9 C 6,6 C 38,1 km/h
S (5 Bft)
Durchschnitt _ 6,1 C 94 % 1006,0 hPa #30,9 l/m 11,1 km/h (2 Bft) S - 5,2 C 0,3 C 14,5 km/h (3 Bft)